Time;durP1;ratioP1;P1;durP2;ratioP2;P2;SDS_P1;SDS_P2;PMS_P1;PMS_P2;Temp;Humidity;BMP_temperature;BMP_pressure;BME280_temperature;BME280_humidity;BME280_pressure;Samples;Min_cycle;Max_cycle;Signal;HPM_P1;HPM_P2
2021/05/21 00:01:48;;;;;;;0.70;0.50;;;14.30;99.90;;;;;;5082415;28;20432;-79
2021/05/21 00:04:14;;;;;;;0.70;0.50;;;14.20;99.90;;;;;;5074972;28;21001;-79
2021/05/21 00:06:40;;;;;;;0.70;0.50;;;14.20;99.90;;;;;;5051229;28;20205;-78
2021/05/21 00:09:06;;;;;;;0.70;0.50;;;14.30;99.90;;;;;;5071757;28;20179;-78
2021/05/21 00:11:32;;;;;;;0.70;0.50;;;14.30;99.90;;;;;;5060753;28;20446;-79
2021/05/21 00:13:57;;;;;;;0.70;0.50;;;14.30;99.90;;;;;;5077311;28;20182;-79
2021/05/21 00:16:23;;;;;;;0.70;0.50;;;14.40;99.90;;;;;;5075106;28;20453;-79
2021/05/21 00:18:51;;;;;;;0.70;0.50;;;14.30;99.90;;;;;;5053989;28;20248;-79
2021/05/21 00:21:16;;;;;;;0.70;0.50;;;14.30;99.90;;;;;;5061891;28;20175;-78
2021/05/21 00:23:42;;;;;;;0.70;0.50;;;14.40;99.90;;;;;;5076374;28;20542;-78
2021/05/21 00:26:07;;;;;;;0.70;0.50;;;14.30;99.90;;;;;;5054936;28;20209;-79
2021/05/21 00:29:31;;;;;;;0.70;0.50;;;14.30;99.90;;;;;;5088264;28;20688;-78
2021/05/21 00:31:57;;;;;;;0.70;0.50;;;14.30;99.90;;;;;;5053018;28;20245;-79
2021/05/21 00:34:22;;;;;;;0.70;0.50;;;14.20;99.90;;;;;;5063513;28;20487;-77
2021/05/21 00:36:48;;;;;;;0.70;0.50;;;14.20;99.90;;;;;;5092425;28;20198;-78
2021/05/21 00:39:13;;;;;;;0.70;0.50;;;14.20;99.90;;;;;;5059252;28;20234;-79
2021/05/21 00:44:36;;;;;;;0.70;0.50;;;14.20;99.90;;;;;;5064191;28;20230;-78
2021/05/21 00:50:18;;;;;;;0.70;0.50;;;14.10;99.90;;;;;;5078594;28;20197;-78
2021/05/21 00:52:44;;;;;;;0.70;0.50;;;14.20;99.90;;;;;;5079568;28;22719;-79
2021/05/21 00:55:11;;;;;;;0.70;0.50;;;14.10;99.90;;;;;;5078053;28;20243;-79
2021/05/21 00:57:37;;;;;;;0.70;0.50;;;14.20;99.90;;;;;;5079962;28;20466;-78
2021/05/21 01:00:07;;;;;;;0.70;0.50;;;14.20;99.90;;;;;;5078506;28;20455;-79
2021/05/21 01:02:32;;;;;;;0.70;0.50;;;14.30;99.90;;;;;;5081251;28;20770;-80
2021/05/21 01:04:58;;;;;;;0.70;0.50;;;14.20;99.90;;;;;;5056145;28;20438;-79
2021/05/21 01:07:24;;;;;;;0.70;0.50;;;14.20;99.90;;;;;;5084303;28;20182;-80
2021/05/21 01:09:51;;;;;;;0.70;0.50;;;14.20;99.90;;;;;;5081030;28;20194;-81
2021/05/21 01:12:16;;;;;;;0.70;0.50;;;14.20;99.90;;;;;;5078907;28;20427;-80
2021/05/21 01:14:49;;;;;;;0.70;0.50;;;14.20;99.90;;;;;;5074626;28;20420;-81
2021/05/21 01:17:16;;;;;;;0.70;0.50;;;14.10;99.90;;;;;;5078895;28;20182;-78
2021/05/21 01:19:42;;;;;;;0.70;0.50;;;14.10;99.90;;;;;;5061502;28;20429;-79
2021/05/21 01:22:09;;;;;;;0.70;0.50;;;14.20;99.90;;;;;;5075544;28;20823;-79
2021/05/21 01:24:34;;;;;;;0.70;0.50;;;14.10;99.90;;;;;;5075571;28;20424;-79
2021/05/21 01:27:02;;;;;;;0.70;0.50;;;14.10;99.90;;;;;;5052637;28;20464;-79
2021/05/21 01:29:29;;;;;;;0.70;0.50;;;14.20;99.90;;;;;;5079273;28;20178;-79
2021/05/21 01:32:14;;;;;;;0.70;0.50;;;14.10;99.90;;;;;;5082399;28;20408;-81
2021/05/21 01:35:56;;;;;;;0.70;0.50;;;14.20;99.90;;;;;;5033703;28;20457;-79
2021/05/21 01:38:37;;;;;;;0.70;0.50;;;13.90;99.90;;;;;;5055579;28;20548;-79
2021/05/21 01:41:03;;;;;;;0.70;0.50;;;14.00;99.90;;;;;;5062413;28;20452;-81
2021/05/21 01:43:30;;;;;;;1.23;1.13;;;13.90;99.90;;;;;;5081177;28;20178;-80
2021/05/21 01:45:57;;;;;;;0.70;0.50;;;13.90;99.90;;;;;;5081137;28;20487;-81
2021/05/21 01:48:22;;;;;;;0.70;0.50;;;13.90;99.90;;;;;;5058468;28;20459;-81
2021/05/21 01:50:48;;;;;;;0.70;0.50;;;14.00;99.90;;;;;;5065579;28;20934;-80
2021/05/21 01:53:13;;;;;;;0.70;0.50;;;14.00;99.90;;;;;;5060103;28;20208;-79
2021/05/21 01:55:39;;;;;;;0.70;0.50;;;14.10;99.90;;;;;;5072181;28;20591;-79
2021/05/21 01:58:04;;;;;;;0.70;0.50;;;14.00;99.90;;;;;;5076707;28;21997;-78
2021/05/21 02:00:30;;;;;;;0.70;0.50;;;13.90;99.90;;;;;;5061428;28;20170;-79
2021/05/21 02:02:56;;;;;;;0.70;0.50;;;13.90;99.90;;;;;;5061019;28;20178;-78
2021/05/21 02:05:22;;;;;;;0.70;0.50;;;13.90;99.90;;;;;;5065518;28;20476;-80
2021/05/21 02:07:47;;;;;;;0.70;0.50;;;13.90;99.90;;;;;;5061229;28;20631;-81
2021/05/21 02:10:13;;;;;;;0.70;0.50;;;13.90;99.90;;;;;;5079971;28;20163;-79
2021/05/21 02:12:43;;;;;;;0.70;0.50;;;14.00;99.90;;;;;;5058853;28;20178;-80
2021/05/21 02:15:10;;;;;;;0.70;0.50;;;14.00;99.90;;;;;;5060183;28;20456;-78
2021/05/21 02:17:35;;;;;;;0.70;0.50;;;14.00;99.90;;;;;;5059080;28;20551;-78
2021/05/21 02:20:03;;;;;;;0.70;0.50;;;14.00;99.90;;;;;;5067522;28;20452;-79
2021/05/21 02:22:30;;;;;;;0.70;0.50;;;14.10;99.90;;;;;;5061626;28;20200;-79
2021/05/21 02:25:12;;;;;;;0.70;0.50;;;14.00;99.90;;;;;;5062888;28;20424;-80
2021/05/21 02:27:39;;;;;;;0.70;0.50;;;14.00;99.90;;;;;;5083161;28;20424;-80
2021/05/21 02:30:06;;;;;;;0.70;0.50;;;13.90;99.90;;;;;;5070673;28;20431;-80
2021/05/21 02:32:32;;;;;;;0.70;0.50;;;13.80;99.90;;;;;;5064356;28;20455;-80
2021/05/21 02:35:02;;;;;;;0.70;0.50;;;13.70;99.90;;;;;;5060396;28;20424;-82
2021/05/21 02:38:09;;;;;;;0.70;0.50;;;13.80;99.90;;;;;;5079656;28;20210;-81
2021/05/21 02:40:36;;;;;;;0.70;0.50;;;13.90;99.90;;;;;;5057769;28;20435;-81
2021/05/21 02:43:08;;;;;;;0.70;0.50;;;13.80;99.90;;;;;;5059773;28;20443;-81
2021/05/21 02:45:33;;;;;;;0.70;0.50;;;13.70;99.90;;;;;;5061446;28;20448;-81
2021/05/21 02:48:08;;;;;;;0.70;0.50;;;13.70;99.90;;;;;;5059589;28;20454;-81
2021/05/21 02:50:33;;;;;;;0.70;0.50;;;13.60;99.90;;;;;;5044677;28;20185;-81
2021/05/21 02:52:59;;;;;;;0.70;0.50;;;13.70;99.90;;;;;;5058391;28;20436;-79
2021/05/21 02:55:24;;;;;;;0.70;0.50;;;13.50;99.90;;;;;;5059719;28;20219;-80
2021/05/21 02:57:50;;;;;;;0.87;0.87;;;13.60;99.90;;;;;;5060374;28;20564;-81
2021/05/21 03:00:16;;;;;;;0.70;0.50;;;13.60;99.90;;;;;;5077553;28;20205;-81
2021/05/21 03:02:42;;;;;;;0.70;0.50;;;13.50;99.90;;;;;;5077478;28;20178;-81
2021/05/21 03:05:08;;;;;;;0.70;0.50;;;13.40;99.90;;;;;;5076690;28;20427;-81
2021/05/21 03:07:33;;;;;;;0.70;0.50;;;13.40;99.90;;;;;;5077196;28;20428;-81
2021/05/21 03:09:59;;;;;;;0.70;0.50;;;13.40;99.90;;;;;;5077335;28;20455;-80
2021/05/21 03:12:24;;;;;;;0.70;0.50;;;13.40;99.90;;;;;;5077109;28;20178;-81
2021/05/21 03:14:50;;;;;;;0.70;0.50;;;13.30;99.90;;;;;;5076521;28;20179;-81
2021/05/21 03:17:16;;;;;;;0.70;0.50;;;13.40;99.90;;;;;;5076224;28;20194;-81
2021/05/21 03:19:41;;;;;;;0.70;0.50;;;13.30;99.90;;;;;;5077831;28;20205;-81
2021/05/21 03:22:07;;;;;;;0.70;0.50;;;13.40;99.90;;;;;;5077790;28;20192;-79
2021/05/21 03:24:33;;;;;;;0.70;0.50;;;13.40;99.90;;;;;;5077028;28;20253;-80
2021/05/21 03:26:58;;;;;;;0.70;0.50;;;13.30;99.90;;;;;;5078070;28;20198;-80
2021/05/21 03:29:24;;;;;;;0.70;0.50;;;13.20;99.90;;;;;;5080771;28;20181;-80
2021/05/21 03:31:49;;;;;;;0.70;0.50;;;13.20;99.90;;;;;;5081075;28;20182;-80
2021/05/21 03:34:15;;;;;;;0.70;0.50;;;13.20;99.90;;;;;;5071933;28;20246;-80
2021/05/21 03:36:41;;;;;;;0.70;0.50;;;13.10;99.90;;;;;;5077931;28;20206;-81
2021/05/21 03:39:08;;;;;;;0.70;0.50;;;13.10;99.90;;;;;;5078240;28;20209;-81
2021/05/21 03:41:34;;;;;;;0.70;0.50;;;13.10;99.90;;;;;;5080314;28;20263;-81
2021/05/21 03:44:00;;;;;;;0.70;0.50;;;13.10;99.90;;;;;;5078425;28;20452;-80
2021/05/21 03:46:26;;;;;;;0.70;0.50;;;13.10;99.90;;;;;;5078985;28;20459;-80
2021/05/21 03:48:51;;;;;;;0.70;0.50;;;13.10;99.90;;;;;;5079400;28;20182;-81
2021/05/21 03:51:17;;;;;;;0.70;0.50;;;13.00;99.90;;;;;;5078236;28;20256;-81
2021/05/21 03:53:43;;;;;;;0.70;0.50;;;13.10;99.90;;;;;;5078675;28;20204;-81
2021/05/21 03:56:09;;;;;;;0.70;0.50;;;13.00;99.90;;;;;;5077659;28;20198;-81
2021/05/21 03:58:35;;;;;;;0.70;0.50;;;13.00;99.90;;;;;;5077530;28;20698;-81
2021/05/21 04:01:01;;;;;;;0.70;0.50;;;13.00;99.90;;;;;;5077793;28;20182;-80
2021/05/21 04:03:27;;;;;;;0.70;0.50;;;12.90;99.90;;;;;;5078219;28;20167;-81
2021/05/21 04:05:53;;;;;;;0.70;0.50;;;12.90;99.90;;;;;;5078714;28;20539;-81
2021/05/21 04:08:18;;;;;;;0.70;0.50;;;12.90;99.90;;;;;;5078558;28;20903;-80
2021/05/21 04:10:44;;;;;;;0.70;0.50;;;12.80;99.90;;;;;;5083371;28;20644;-80
2021/05/21 04:13:10;;;;;;;0.70;0.50;;;12.80;99.90;;;;;;5068563;28;20856;-81
2021/05/21 04:15:37;;;;;;;0.70;0.50;;;12.70;99.90;;;;;;5077668;28;20202;-81
2021/05/21 04:18:03;;;;;;;0.70;0.50;;;12.80;99.90;;;;;;5075336;28;20899;-81
2021/05/21 04:20:29;;;;;;;0.70;0.50;;;12.70;99.90;;;;;;5077304;28;20433;-80
2021/05/21 04:22:56;;;;;;;0.70;0.50;;;12.60;99.90;;;;;;5077260;28;20257;-81
2021/05/21 04:25:21;;;;;;;0.70;0.50;;;12.60;99.90;;;;;;5061261;28;20170;-80
2021/05/21 04:27:47;;;;;;;0.70;0.50;;;12.60;99.90;;;;;;5065139;28;20460;-81
2021/05/21 04:30:13;;;;;;;0.70;0.50;;;12.50;99.90;;;;;;5074947;28;20181;-81
2021/05/21 04:32:39;;;;;;;0.70;0.50;;;12.40;99.90;;;;;;5075083;28;20192;-78
2021/05/21 04:35:05;;;;;;;0.70;0.50;;;12.60;99.90;;;;;;5055469;28;20432;-81
2021/05/21 04:37:31;;;;;;;0.70;0.50;;;12.70;99.90;;;;;;5075141;28;20197;-79
2021/05/21 04:39:56;;;;;;;0.70;0.50;;;12.60;99.90;;;;;;5062552;28;20977;-81
2021/05/21 04:42:22;;;;;;;0.70;0.50;;;12.70;99.90;;;;;;5075410;28;20196;-81
2021/05/21 04:44:47;;;;;;;0.70;0.50;;;12.70;99.90;;;;;;5076767;28;20198;-81
2021/05/21 04:47:13;;;;;;;0.70;0.50;;;12.80;99.90;;;;;;5077256;28;20595;-81
2021/05/21 04:49:39;;;;;;;0.70;0.50;;;12.90;99.90;;;;;;5061561;28;20187;-80
2021/05/21 04:52:07;;;;;;;0.70;0.50;;;12.90;99.90;;;;;;5077511;28;20163;-81
2021/05/21 04:54:34;;;;;;;0.70;0.50;;;12.90;99.90;;;;;;5075256;28;20427;-81
2021/05/21 04:57:00;;;;;;;0.70;0.50;;;13.00;99.90;;;;;;5076891;28;20454;-81
2021/05/21 04:59:25;;;;;;;0.70;0.50;;;13.00;99.90;;;;;;5075875;28;20475;-80
2021/05/21 05:01:51;;;;;;;0.70;0.50;;;13.20;99.90;;;;;;5083941;28;20170;-81
2021/05/21 05:04:17;;;;;;;0.70;0.50;;;13.30;99.90;;;;;;5087668;28;20200;-77
2021/05/21 05:06:43;;;;;;;0.70;0.50;;;13.20;99.90;;;;;;5070316;28;20436;-80
2021/05/21 05:09:10;;;;;;;0.70;0.50;;;13.30;99.90;;;;;;5084843;28;20178;-80
2021/05/21 05:11:39;;;;;;;0.80;0.73;;;13.40;99.90;;;;;;5089723;28;20483;-79
2021/05/21 05:14:05;;;;;;;0.70;0.50;;;13.60;99.90;;;;;;5087486;28;20427;-81
2021/05/21 05:16:31;;;;;;;0.70;0.50;;;13.80;99.90;;;;;;5086826;28;20475;-81
2021/05/21 05:18:56;;;;;;;0.70;0.50;;;13.90;99.90;;;;;;5088550;28;20474;-81
2021/05/21 05:21:22;;;;;;;0.70;0.50;;;14.10;99.90;;;;;;5086932;28;20200;-80
2021/05/21 05:23:49;;;;;;;0.70;0.50;;;13.90;99.90;;;;;;5086455;28;20174;-81
2021/05/21 05:26:16;;;;;;;0.70;0.50;;;14.00;99.90;;;;;;5085639;28;20198;-78
2021/05/21 05:28:45;;;;;;;0.70;0.50;;;14.10;99.90;;;;;;5057324;28;20944;-81
2021/05/21 05:31:11;;;;;;;0.70;0.50;;;14.20;99.90;;;;;;5085945;28;20452;-80
2021/05/21 05:33:38;;;;;;;0.70;0.50;;;14.10;99.90;;;;;;5087174;28;20420;-81
2021/05/21 05:36:03;;;;;;;0.70;0.50;;;14.20;99.90;;;;;;5084364;28;20498;-79
2021/05/21 05:38:33;;;;;;;0.70;0.50;;;14.20;99.90;;;;;;5084919;28;20460;-81
2021/05/21 05:40:58;;;;;;;0.70;0.50;;;14.30;99.90;;;;;;5081873;28;20439;-81
2021/05/21 05:43:24;;;;;;;0.70;0.50;;;14.30;99.90;;;;;;5085333;28;20428;-81
2021/05/21 05:45:50;;;;;;;0.70;0.50;;;14.20;99.90;;;;;;5087305;28;20194;-81
2021/05/21 05:48:19;;;;;;;0.70;0.50;;;14.30;99.90;;;;;;5087396;28;20463;-81
2021/05/21 05:50:46;;;;;;;0.70;0.50;;;14.50;99.90;;;;;;5085722;28;20440;-81
2021/05/21 05:53:11;;;;;;;0.70;0.50;;;14.50;99.90;;;;;;5086369;28;20511;-81
2021/05/21 05:55:39;;;;;;;0.70;0.50;;;14.40;99.90;;;;;;5086317;28;20482;-80
2021/05/21 05:58:04;;;;;;;0.70;0.50;;;14.40;99.90;;;;;;5086762;28;20216;-81
2021/05/21 06:00:30;;;;;;;0.70;0.50;;;14.50;99.90;;;;;;5086518;28;20413;-81
2021/05/21 06:02:55;;;;;;;0.70;0.50;;;14.50;99.90;;;;;;5086361;28;20242;-79
2021/05/21 06:05:21;;;;;;;0.70;0.50;;;14.60;99.90;;;;;;5077772;28;20284;-81
2021/05/21 06:07:46;;;;;;;0.70;0.50;;;14.60;99.90;;;;;;5086446;28;20309;-81
2021/05/21 06:10:12;;;;;;;0.70;0.50;;;14.80;99.90;;;;;;5086546;28;20182;-81
2021/05/21 06:12:38;;;;;;;0.70;0.50;;;14.70;99.90;;;;;;5085111;28;20243;-81
2021/05/21 06:15:04;;;;;;;0.70;0.50;;;14.90;99.90;;;;;;5083166;28;20178;-79
2021/05/21 06:17:29;;;;;;;0.70;0.50;;;14.80;99.90;;;;;;5082537;28;20213;-81
2021/05/21 06:19:55;;;;;;;0.70;0.50;;;14.90;99.90;;;;;;5083789;28;20423;-81
2021/05/21 06:22:21;;;;;;;0.70;0.50;;;15.00;99.90;;;;;;5085469;28;20204;-81
2021/05/21 06:24:48;;;;;;;0.70;0.50;;;15.10;99.90;;;;;;5082376;28;20244;-80
2021/05/21 06:27:23;;;;;;;0.70;0.50;;;15.40;99.90;;;;;;5061625;28;20186;-80
2021/05/21 06:29:49;;;;;;;0.70;0.50;;;15.60;99.90;;;;;;5078444;28;20416;-81
2021/05/21 06:32:14;;;;;;;0.70;0.50;;;15.60;99.90;;;;;;5082070;28;20427;-80
2021/05/21 06:34:40;;;;;;;0.70;0.50;;;15.40;99.90;;;;;;5082708;28;20181;-81
2021/05/21 06:37:06;;;;;;;0.70;0.50;;;15.50;99.90;;;;;;5084005;28;20194;-81
2021/05/21 06:39:31;;;;;;;0.70;0.50;;;15.40;99.90;;;;;;5081938;28;20287;-81
2021/05/21 06:41:57;;;;;;;0.70;0.50;;;15.30;99.90;;;;;;5083214;28;20196;-80
2021/05/21 06:44:22;;;;;;;0.70;0.50;;;15.60;99.90;;;;;;5079017;28;20197;-80
2021/05/21 06:46:48;;;;;;;0.70;0.50;;;15.90;99.90;;;;;;5081089;28;20209;-79
2021/05/21 06:49:14;;;;;;;0.70;0.50;;;15.80;99.90;;;;;;5079752;28;20178;-80
2021/05/21 06:51:41;;;;;;;0.80;0.70;;;16.10;99.90;;;;;;5079903;28;20174;-79
2021/05/21 06:54:07;;;;;;;0.70;0.50;;;16.30;99.90;;;;;;5055121;28;20495;-81
2021/05/21 06:56:35;;;;;;;0.70;0.50;;;16.20;99.90;;;;;;5083274;28;20446;-81
2021/05/21 06:59:02;;;;;;;1.03;0.87;;;16.30;99.90;;;;;;5081296;28;20482;-80
2021/05/21 07:01:28;;;;;;;0.70;0.50;;;16.30;99.90;;;;;;5084490;28;20461;-81
2021/05/21 07:03:54;;;;;;;0.70;0.50;;;16.50;99.90;;;;;;5079490;28;20436;-81
2021/05/21 07:06:19;;;;;;;0.70;0.50;;;16.60;99.90;;;;;;5082321;28;20192;-80
2021/05/21 07:08:45;;;;;;;0.70;0.50;;;16.70;99.90;;;;;;5080564;28;20264;-81
2021/05/21 07:11:10;;;;;;;0.70;0.50;;;16.80;99.90;;;;;;5081299;28;20212;-81
2021/05/21 07:13:36;;;;;;;0.70;0.50;;;17.20;99.90;;;;;;5078128;28;20179;-81
2021/05/21 07:16:01;;;;;;;0.70;0.50;;;17.40;99.90;;;;;;5055593;28;20208;-81
2021/05/21 07:18:27;;;;;;;0.70;0.50;;;17.20;99.90;;;;;;5080086;28;20200;-81
2021/05/21 07:20:59;;;;;;;0.70;0.50;;;17.50;99.90;;;;;;5062079;28;20698;-81
2021/05/21 07:23:24;;;;;;;0.70;0.50;;;17.60;99.90;;;;;;5055011;28;20311;-81
2021/05/21 07:25:50;;;;;;;0.70;0.50;;;17.80;99.90;;;;;;5061175;28;20481;-80
2021/05/21 07:28:15;;;;;;;0.70;0.50;;;18.30;99.90;;;;;;5079070;28;20185;-81
2021/05/21 07:30:41;;;;;;;0.70;0.50;;;17.90;99.90;;;;;;5080180;28;20242;-82
2021/05/21 07:33:07;;;;;;;0.70;0.50;;;18.30;99.90;;;;;;5079362;28;20193;-81
2021/05/21 07:35:33;;;;;;;0.80;0.50;;;18.50;99.90;;;;;;5078662;28;20213;-80
2021/05/21 07:37:58;;;;;;;0.80;0.50;;;18.70;99.90;;;;;;5079699;28;20202;-80
2021/05/21 07:40:24;;;;;;;0.70;0.50;;;18.20;99.90;;;;;;5078479;28;20185;-80
2021/05/21 07:42:50;;;;;;;0.70;0.50;;;18.10;99.90;;;;;;5080023;28;20620;-79
2021/05/21 07:45:16;;;;;;;0.70;0.50;;;17.70;99.90;;;;;;5082519;28;20194;-79
2021/05/21 07:47:41;;;;;;;0.70;0.50;;;17.40;99.90;;;;;;5080764;28;20424;-80
2021/05/21 07:50:08;;;;;;;0.70;0.50;;;17.20;99.90;;;;;;5081964;28;20424;-81
2021/05/21 07:52:34;;;;;;;0.70;0.50;;;17.00;99.90;;;;;;5083256;28;20227;-81
2021/05/21 07:55:01;;;;;;;0.70;0.50;;;16.60;99.90;;;;;;5086057;28;20587;-81
2021/05/21 07:57:27;;;;;;;0.70;0.50;;;16.30;99.90;;;;;;5069140;28;20202;-83
2021/05/21 07:59:52;;;;;;;0.70;0.50;;;16.00;99.90;;;;;;5075778;28;20424;-79
2021/05/21 08:02:18;;;;;;;0.70;0.50;;;15.90;99.90;;;;;;5078711;28;20181;-81
2021/05/21 08:04:44;;;;;;;0.70;0.50;;;15.60;99.90;;;;;;5086163;28;20166;-81
2021/05/21 08:07:09;;;;;;;0.70;0.50;;;15.40;99.90;;;;;;5084254;28;20190;-81
2021/05/21 08:09:38;;;;;;;0.70;0.50;;;15.30;99.90;;;;;;5064874;28;20174;-80
2021/05/21 08:12:05;;;;;;;0.70;0.50;;;16.00;99.90;;;;;;5080046;28;20178;-80
2021/05/21 08:14:32;;;;;;;0.70;0.50;;;16.60;99.90;;;;;;5080567;28;20420;-81
2021/05/21 08:16:57;;;;;;;0.70;0.50;;;17.20;99.90;;;;;;5080169;28;20535;-82
2021/05/21 08:19:23;;;;;;;0.70;0.50;;;17.40;95.90;;;;;;5079099;28;20479;-81
2021/05/21 08:21:49;;;;;;;0.70;0.50;;;17.90;94.00;;;;;;5079224;28;20178;-79
2021/05/21 08:24:15;;;;;;;0.80;0.50;;;18.40;92.20;;;;;;5059266;28;20175;-81
2021/05/21 08:26:40;;;;;;;0.70;0.50;;;18.80;86.50;;;;;;5078748;28;20470;-82
2021/05/21 08:29:06;;;;;;;0.70;0.50;;;18.80;81.20;;;;;;5077277;28;20205;-81
2021/05/21 08:31:31;;;;;;;0.70;0.50;;;19.30;87.50;;;;;;5063131;28;20178;-80
2021/05/21 08:33:57;;;;;;;0.80;0.50;;;19.30;77.50;;;;;;5065814;28;20221;-80
2021/05/21 08:36:23;;;;;;;0.70;0.50;;;19.70;76.20;;;;;;5082461;28;20209;-80
2021/05/21 08:38:49;;;;;;;0.80;0.50;;;19.90;75.30;;;;;;5069091;28;20206;-80
2021/05/21 08:41:17;;;;;;;0.80;0.50;;;19.70;71.90;;;;;;5053197;28;20224;-80
2021/05/21 08:43:48;;;;;;;0.80;0.50;;;19.40;68.60;;;;;;5066287;28;20424;-81
2021/05/21 08:46:15;;;;;;;0.80;0.50;;;20.20;71.90;;;;;;5065365;28;20448;-80
2021/05/21 08:48:41;;;;;;;0.80;0.50;;;20.50;67.20;;;;;;5054233;28;20455;-80
2021/05/21 08:51:09;;;;;;;0.77;0.50;;;21.00;65.00;;;;;;5056621;28;20444;-81
2021/05/21 08:53:37;;;;;;;0.80;0.50;;;21.20;66.60;;;;;;5061151;28;20418;-80
2021/05/21 08:56:03;;;;;;;0.80;0.50;;;20.50;59.60;;;;;;5080115;28;20205;-80
2021/05/21 08:58:29;;;;;;;0.80;0.50;;;19.20;61.40;;;;;;5079563;28;20570;-80
2021/05/21 09:01:03;;;;;;;0.90;0.70;;;18.80;68.20;;;;;;5082445;28;20428;-81
2021/05/21 09:03:30;;;;;;;0.80;0.50;;;18.70;68.10;;;;;;5083169;28;20278;-81
2021/05/21 09:06:21;;;;;;;0.70;0.50;;;18.40;71.00;;;;;;5079062;28;20533;-80
2021/05/21 09:09:05;;;;;;;0.70;0.50;;;18.10;71.80;;;;;;5079337;28;20547;-81
2021/05/21 09:11:37;;;;;;;0.70;0.50;;;18.30;77.70;;;;;;5077922;28;20513;-80
2021/05/21 09:14:18;;;;;;;0.80;0.50;;;18.60;75.30;;;;;;5073133;28;20500;-80
2021/05/21 09:16:46;;;;;;;0.70;0.50;;;18.90;71.60;;;;;;5061512;28;20455;-80
2021/05/21 09:19:17;;;;;;;0.77;0.50;;;19.50;69.70;;;;;;5078200;28;20452;-80
2021/05/21 09:22:07;;;;;;;0.70;0.50;;;19.70;67.20;;;;;;5078501;28;20436;-81
2021/05/21 09:24:42;;;;;;;0.70;0.50;;;19.60;67.80;;;;;;5085992;28;20455;-80
2021/05/21 09:27:29;;;;;;;0.70;0.50;;;18.80;66.00;;;;;;5081103;28;20439;-81
2021/05/21 09:30:17;;;;;;;0.70;0.50;;;18.60;68.00;;;;;;5082337;28;20411;-80
2021/05/21 09:33:16;;;;;;;0.80;0.50;;;18.00;66.80;;;;;;5082257;28;20436;-81
2021/05/21 09:35:55;;;;;;;0.70;0.50;;;18.10;71.10;;;;;;5041206;28;20429;-80
2021/05/21 09:38:21;;;;;;;0.70;0.50;;;18.70;68.40;;;;;;5041697;28;20468;-80
2021/05/21 09:40:46;;;;;;;0.70;0.50;;;19.00;62.10;;;;;;5071987;28;20520;-82
2021/05/21 09:43:12;;;;;;;0.80;0.50;;;19.60;61.70;;;;;;5058384;28;20174;-79
2021/05/21 09:45:40;;;;;;;0.80;0.50;;;19.90;60.20;;;;;;5060208;28;20798;-78
2021/05/21 09:48:08;;;;;;;0.77;0.50;;;20.40;58.70;;;;;;5060283;28;20188;-78
2021/05/21 09:50:42;;;;;;;0.80;0.50;;;20.50;55.10;;;;;;5074747;28;20435;-79
2021/05/21 09:53:17;;;;;;;0.70;0.50;;;19.80;54.70;;;;;;5073221;28;20881;-79
2021/05/21 09:55:50;;;;;;;0.80;0.50;;;19.80;55.40;;;;;;5075546;28;20434;-78
2021/05/21 09:58:33;;;;;;;0.80;0.50;;;19.90;56.40;;;;;;5038164;28;20966;-79
2021/05/21 10:01:24;;;;;;;0.70;0.50;;;20.30;56.30;;;;;;5054943;28;20432;-79
2021/05/21 10:03:55;;;;;;;0.70;0.50;;;20.00;56.20;;;;;;5073927;28;20436;-78
2021/05/21 10:06:22;;;;;;;0.70;0.50;;;19.90;57.80;;;;;;5083663;28;20516;-80
2021/05/21 10:08:48;;;;;;;0.80;0.50;;;20.20;56.90;;;;;;5068178;28;20443;-79
2021/05/21 10:11:17;;;;;;;0.73;0.50;;;20.10;55.80;;;;;;5085546;28;20408;-79
2021/05/21 10:13:46;;;;;;;0.73;0.50;;;20.00;59.20;;;;;;5065575;28;20535;-79
2021/05/21 10:16:20;;;;;;;0.80;0.50;;;20.50;58.40;;;;;;5056928;28;20456;-78
2021/05/21 10:18:51;;;;;;;0.80;0.50;;;20.90;58.20;;;;;;5075566;28;20534;-79
2021/05/21 10:21:18;;;;;;;0.80;0.50;;;20.80;55.70;;;;;;5056510;28;20399;-79
2021/05/21 10:23:55;;;;;;;0.80;0.50;;;20.60;55.00;;;;;;5059167;28;20989;-78
2021/05/21 10:26:45;;;;;;;0.80;0.50;;;20.10;55.50;;;;;;5058736;28;20471;-79
2021/05/21 10:29:20;;;;;;;0.70;0.50;;;19.80;56.80;;;;;;5074703;28;20432;-80
2021/05/21 10:31:48;;;;;;;0.70;0.50;;;19.90;55.00;;;;;;5058477;28;20415;-77
2021/05/21 10:34:16;;;;;;;0.70;0.50;;;20.00;55.00;;;;;;5045562;28;20439;-78
2021/05/21 10:36:42;;;;;;;0.70;0.50;;;20.10;54.50;;;;;;5078042;28;20830;-78
2021/05/21 10:39:19;;;;;;;0.70;0.50;;;20.20;54.70;;;;;;5076319;28;20462;-77
2021/05/21 10:41:56;;;;;;;0.73;0.50;;;19.90;55.60;;;;;;5078515;28;20427;-78
2021/05/21 10:44:23;;;;;;;0.70;0.50;;;19.50;55.70;;;;;;5079157;28;20428;-78
2021/05/21 10:46:50;;;;;;;0.80;0.50;;;20.10;58.10;;;;;;5086161;28;20813;-78
2021/05/21 10:49:25;;;;;;;0.80;0.50;;;20.80;57.90;;;;;;5085912;28;20420;-78
2021/05/21 10:51:54;;;;;;;0.80;0.60;;;20.80;55.70;;;;;;5086834;28;20430;-80
2021/05/21 10:54:40;;;;;;;0.70;0.50;;;20.10;55.60;;;;;;5086368;28;20527;-79
2021/05/21 10:57:19;;;;;;;0.70;0.50;;;20.20;54.30;;;;;;5062167;28;20456;-79
2021/05/21 10:59:50;;;;;;;0.80;0.50;;;20.40;54.20;;;;;;5087478;28;20452;-79
2021/05/21 11:02:17;;;;;;;0.70;0.50;;;20.70;52.80;;;;;;5086012;28;20459;-79
2021/05/21 11:04:42;;;;;;;0.70;0.50;;;21.20;55.60;;;;;;5086377;28;20435;-78
2021/05/21 11:07:08;;;;;;;0.70;0.50;;;20.10;51.90;;;;;;5083739;28;20452;-79
2021/05/21 11:09:44;;;;;;;0.70;0.50;;;20.10;53.80;;;;;;5066603;28;20186;-78
2021/05/21 11:12:16;;;;;;;0.70;0.50;;;20.00;53.60;;;;;;5084550;28;20190;-78
2021/05/21 11:14:46;;;;;;;0.70;0.50;;;20.40;54.20;;;;;;5084802;28;20482;-78
2021/05/21 11:17:15;;;;;;;0.80;0.50;;;21.20;55.60;;;;;;5061440;28;20482;-79
2021/05/21 11:19:54;;;;;;;0.80;0.50;;;21.70;54.10;;;;;;5077651;28;20471;-79
2021/05/21 11:22:25;;;;;;;0.80;0.50;;;21.80;52.40;;;;;;5073311;28;20423;-79
2021/05/21 11:24:54;;;;;;;0.80;0.50;;;21.50;50.80;;;;;;5078429;28;20473;-79
2021/05/21 11:27:25;;;;;;;0.80;0.50;;;22.20;51.70;;;;;;5086735;28;20987;-78
2021/05/21 11:29:52;;;;;;;0.80;0.50;;;22.00;51.50;;;;;;5071754;28;20458;-79
2021/05/21 11:32:20;;;;;;;0.70;0.50;;;21.30;48.70;;;;;;5089160;28;20420;-78
2021/05/21 11:34:47;;;;;;;0.80;0.50;;;20.80;48.60;;;;;;5073805;28;20424;-78
2021/05/21 11:37:31;;;;;;;0.70;0.50;;;20.80;50.80;;;;;;5069747;28;20452;-79
2021/05/21 11:39:57;;;;;;;0.70;0.50;;;20.50;52.40;;;;;;5088428;28;20412;-79
2021/05/21 11:42:23;;;;;;;0.80;0.50;;;20.70;52.40;;;;;;5085462;28;20422;-78
2021/05/21 11:44:54;;;;;;;0.70;0.50;;;20.90;53.10;;;;;;5066936;28;20404;-78
2021/05/21 11:47:25;;;;;;;0.80;0.50;;;20.70;52.50;;;;;;5083526;28;20444;-79
2021/05/21 11:49:53;;;;;;;0.73;0.50;;;20.40;52.80;;;;;;5069184;28;20466;-79
2021/05/21 11:52:18;;;;;;;0.80;0.50;;;20.80;54.40;;;;;;5077379;28;20997;-79
2021/05/21 11:54:44;;;;;;;0.80;0.50;;;20.20;54.10;;;;;;5075052;28;20475;-78
2021/05/21 11:57:18;;;;;;;0.80;0.50;;;20.20;55.20;;;;;;5058422;28;20190;-79
2021/05/21 11:59:43;;;;;;;0.77;0.50;;;20.60;55.50;;;;;;5081367;28;20210;-79
2021/05/21 12:02:13;;;;;;;0.70;0.50;;;20.80;54.00;;;;;;5070745;28;20435;-78
2021/05/21 12:04:41;;;;;;;0.70;0.50;;;20.30;53.90;;;;;;5088401;28;20190;-80
2021/05/21 12:07:22;;;;;;;0.70;0.50;;;21.00;55.10;;;;;;5075573;28;20429;-78
2021/05/21 12:10:02;;;;;;;0.70;0.50;;;20.90;52.30;;;;;;5069688;28;21031;-79
2021/05/21 12:12:29;;;;;;;0.70;0.50;;;20.70;50.90;;;;;;5095100;28;20499;-79
2021/05/21 12:15:13;;;;;;;0.70;0.50;;;21.20;51.40;;;;;;5070269;28;20432;-79
2021/05/21 12:17:47;;;;;;;0.70;0.50;;;20.80;50.60;;;;;;5086924;28;20454;-78
2021/05/21 12:20:14;;;;;;;0.70;0.50;;;21.10;52.20;;;;;;5058655;28;20416;-79
2021/05/21 12:23:08;;;;;;;0.80;0.50;;;21.10;51.20;;;;;;5075860;28;20824;-78
2021/05/21 12:25:35;;;;;;;0.80;0.50;;;22.00;54.80;;;;;;5087662;28;20467;-79
2021/05/21 12:28:02;;;;;;;0.80;0.50;;;22.10;50.80;;;;;;5086324;28;20428;-79
2021/05/21 12:30:29;;;;;;;0.80;0.50;;;22.30;51.60;;;;;;5069275;28;20439;-79
2021/05/21 12:32:54;;;;;;;0.80;0.50;;;22.40;50.90;;;;;;5086615;28;20473;-79
2021/05/21 12:35:35;;;;;;;0.70;0.50;;;22.10;48.00;;;;;;5065878;28;20431;-80
2021/05/21 12:38:03;;;;;;;0.70;0.50;;;21.10;46.80;;;;;;5067621;28;20206;-79
2021/05/21 12:40:29;;;;;;;0.70;0.50;;;20.20;47.60;;;;;;5078768;28;20393;-78
2021/05/21 12:42:54;;;;;;;0.70;0.50;;;19.80;49.80;;;;;;5062634;28;20432;-78
2021/05/21 12:45:21;;;;;;;0.70;0.50;;;20.30;53.30;;;;;;5081226;28;20178;-80
2021/05/21 12:47:48;;;;;;;0.73;0.50;;;20.90;53.70;;;;;;5079269;28;20174;-78
2021/05/21 12:50:16;;;;;;;0.80;0.50;;;21.60;53.40;;;;;;5074386;28;20944;-78
2021/05/21 12:52:56;;;;;;;0.80;0.50;;;22.10;52.00;;;;;;5060107;28;20428;-79
2021/05/21 12:55:23;;;;;;;0.70;0.50;;;22.10;51.00;;;;;;5074506;28;21013;-78
2021/05/21 12:57:49;;;;;;;0.80;0.50;;;21.80;49.70;;;;;;5075725;28;20460;-78
2021/05/21 13:00:20;;;;;;;0.70;0.50;;;21.60;50.00;;;;;;5072883;28;20995;-78
2021/05/21 13:02:56;;;;;;;0.70;0.50;;;21.90;50.80;;;;;;5061962;28;20204;-78